createdAt,value
2016-05-15T00:00:44.312Z,65.92
2016-05-15T00:01:44.283Z,65.73
2016-05-15T00:02:44.254Z,65.73
2016-05-15T00:03:44.242Z,65.63
2016-05-15T00:04:44.214Z,65.82
2016-05-15T00:05:44.185Z,65.63
2016-05-15T00:06:44.157Z,65.44
2016-05-15T00:07:44.127Z,65.44
2016-05-15T00:08:44.098Z,65.28
2016-05-15T00:09:44.070Z,65.28
2016-05-15T00:10:44.058Z,65.76
2016-05-15T00:11:44.029Z,65.57
2016-05-15T00:12:44.001Z,65.67
2016-05-15T00:13:43.972Z,65.57
2016-05-15T00:14:43.943Z,65.47
2016-05-15T00:15:43.915Z,65.76
2016-05-15T00:16:43.886Z,65.57
2016-05-15T00:17:43.873Z,65.76
2016-05-15T00:18:43.845Z,65.28
2016-05-15T00:19:43.816Z,65.47
2016-05-15T00:20:43.787Z,65.86
2016-05-15T00:21:43.759Z,66.05
2016-05-15T00:22:43.730Z,66.01
2016-05-15T00:23:43.703Z,66.24
2016-05-15T00:24:43.689Z,66.14
2016-05-15T00:25:43.661Z,66.14
2016-05-15T00:26:43.632Z,66.14
2016-05-15T00:27:43.603Z,66.71
2016-05-15T00:28:43.574Z,66.52
2016-05-15T00:29:43.546Z,66.61
2016-05-15T00:30:43.518Z,66.24
2016-05-15T00:31:43.505Z,66.52
2016-05-15T00:32:43.477Z,66.58
2016-05-15T00:33:43.447Z,66.42
2016-05-15T00:34:43.419Z,66.24
2016-05-15T00:35:43.390Z,66.42
2016-05-15T00:36:43.362Z,66.42
2016-05-15T00:37:43.349Z,66.52
2016-05-15T00:38:43.320Z,66.52
2016-05-15T00:39:43.292Z,66.52
2016-05-15T00:40:43.263Z,66.42
2016-05-15T00:41:43.234Z,66.24
2016-05-15T00:42:43.206Z,66.42
2016-05-15T00:43:43.178Z,66.71
2016-05-15T00:44:43.149Z,66.52
2016-05-15T00:45:43.136Z,66.71
2016-05-15T00:46:43.107Z,66.52
2016-05-15T00:47:43.079Z,67
2016-05-15T00:48:43.300Z,66.61
2016-05-15T00:49:43.023Z,66.8
2016-05-15T00:50:42.993Z,66.8
2016-05-15T00:51:42.965Z,67
2016-05-15T00:52:42.952Z,66.9
2016-05-15T00:53:42.923Z,67
2016-05-15T00:54:42.894Z,67.09
2016-05-15T00:55:42.866Z,67
2016-05-15T00:56:42.838Z,67.28
2016-05-15T00:57:42.809Z,67.09
2016-05-15T00:58:42.796Z,67
2016-05-15T00:59:42.767Z,67.28
2016-05-15T01:00:42.739Z,67
2016-05-15T01:01:42.710Z,67.09
2016-05-15T01:02:42.682Z,67.09
2016-05-15T01:03:42.653Z,66.9
2016-05-15T01:04:42.891Z,67.09
2016-05-15T01:05:42.612Z,67.28
2016-05-15T01:06:42.583Z,67.19
2016-05-15T01:07:42.555Z,67.09
2016-05-15T01:08:42.526Z,67.28
2016-05-15T01:09:42.498Z,67.09
2016-05-15T01:10:42.469Z,67.09
2016-05-15T01:11:42.457Z,67
2016-05-15T01:12:42.427Z,67
2016-05-15T01:13:42.399Z,66.8
2016-05-15T01:14:42.370Z,67.28
2016-05-15T01:15:42.342Z,67
2016-05-15T01:16:42.329Z,67.09
2016-05-15T01:17:42.300Z,67
2016-05-15T01:18:42.272Z,67
2016-05-15T01:19:42.243Z,67
2016-05-15T01:20:42.214Z,67.09
2016-05-15T01:21:42.187Z,67.09
2016-05-15T01:22:42.173Z,66.9
2016-05-15T01:23:42.145Z,67.28
2016-05-15T01:24:42.116Z,67.66
2016-05-15T01:25:42.087Z,67.76
2016-05-15T01:26:42.059Z,67.85
2016-05-15T01:27:42.030Z,67.76
2016-05-15T01:28:42.002Z,67.85
2016-05-15T01:29:41.989Z,67.94
2016-05-15T01:30:41.960Z,67.76
2016-05-15T01:31:41.932Z,68.1
2016-05-15T01:32:41.903Z,68.39
2016-05-15T01:33:41.875Z,68.1
2016-05-15T01:34:41.846Z,68.86
2016-05-15T01:35:41.818Z,68.77
2016-05-15T01:36:41.805Z,68.96
2016-05-15T01:37:41.776Z,69.24
2016-05-15T01:38:41.747Z,69.05
2016-05-15T01:39:41.719Z,69.05
2016-05-15T01:40:41.690Z,69.05
2016-05-15T01:41:41.662Z,69.24
2016-05-15T01:42:41.632Z,69.24
2016-05-15T01:43:41.620Z,69.15
2016-05-15T01:44:41.592Z,69.05
2016-05-15T01:45:41.562Z,69.05
2016-05-15T01:46:41.534Z,69.05
2016-05-15T01:47:41.506Z,68.96
2016-05-15T01:48:41.478Z,68.86
2016-05-15T01:49:41.449Z,69.05
2016-05-15T01:50:41.420Z,68.96
2016-05-15T01:51:41.392Z,68.86
2016-05-15T01:52:41.378Z,68.86
2016-05-15T01:53:41.351Z,69.05
2016-05-15T01:54:41.322Z,69.05
2016-05-15T01:55:41.293Z,69.05
2016-05-15T01:56:41.264Z,68.96
2016-05-15T01:57:41.236Z,69.05
2016-05-15T01:58:41.223Z,69.15
2016-05-15T01:59:41.194Z,68.96
2016-05-15T02:00:41.166Z,69.05
2016-05-15T02:01:41.138Z,68.96
2016-05-15T02:02:41.109Z,68.96
2016-05-15T02:03:41.080Z,69.62
2016-05-15T02:04:41.052Z,69.62
2016-05-15T02:05:41.023Z,69.43
2016-05-15T02:06:41.010Z,69.53
2016-05-15T02:07:40.982Z,69.34
2016-05-15T02:08:40.952Z,69.53
2016-05-15T02:09:40.925Z,69.34
2016-05-15T02:10:40.896Z,69.71
2016-05-15T02:11:40.868Z,69.62
2016-05-15T02:12:40.838Z,69.81
2016-05-15T02:13:40.811Z,70
2016-05-15T02:14:40.798Z,69.91
2016-05-15T02:15:40.768Z,69.81
2016-05-15T02:16:40.741Z,70
2016-05-15T02:17:40.712Z,70
2016-05-15T02:18:40.683Z,69.91
2016-05-15T02:19:40.655Z,69.81
2016-05-15T02:20:40.626Z,69.81
2016-05-15T02:21:40.613Z,69.62
2016-05-15T02:22:40.584Z,69.71
2016-05-15T02:23:40.556Z,69.81
2016-05-15T02:24:40.528Z,69.81
2016-05-15T02:25:40.498Z,69.81
2016-05-15T02:26:40.470Z,70
2016-05-15T02:27:40.442Z,69.81
2016-05-15T02:28:40.429Z,70
2016-05-15T02:29:40.400Z,69.91
2016-05-15T02:30:40.372Z,69.71
2016-05-15T02:31:40.343Z,70.38
2016-05-15T02:32:40.315Z,70.19
2016-05-15T02:33:40.286Z,70.29
2016-05-15T02:34:40.257Z,70.1
2016-05-15T02:35:40.229Z,70
2016-05-15T02:36:40.216Z,70.19
2016-05-15T02:37:40.188Z,70.48
2016-05-15T02:38:40.158Z,70.57
2016-05-15T02:39:40.130Z,70.29
2016-05-15T02:40:40.102Z,70.29
2016-05-15T02:41:40.073Z,70.19
2016-05-15T02:42:40.044Z,70.48
2016-05-15T02:43:40.032Z,70.29
2016-05-15T02:44:40.004Z,70.29
2016-05-15T02:45:39.974Z,70.19
2016-05-15T02:46:39.946Z,70.29
2016-05-15T02:47:39.917Z,70.19
2016-05-15T02:48:39.904Z,70.19
2016-05-15T02:49:39.860Z,70.19
2016-05-15T02:50:39.847Z,70.57
2016-05-15T02:51:39.819Z,70.29
2016-05-15T02:52:39.790Z,70.67
2016-05-15T02:53:39.761Z,70.48
2016-05-15T02:54:39.733Z,70.76
2016-05-15T02:55:39.704Z,70.76
2016-05-15T02:56:39.692Z,70.86
2016-05-15T02:57:39.663Z,71.14
2016-05-15T02:58:39.635Z,70.76
2016-05-15T02:59:39.606Z,70.76
2016-05-15T03:00:39.577Z,70.67
2016-05-15T03:01:39.549Z,70.57
2016-05-15T03:02:39.520Z,70.57
2016-05-15T03:03:39.491Z,70.67
2016-05-15T03:04:39.478Z,70.38
2016-05-15T03:05:39.435Z,71.33
2016-05-15T03:06:39.438Z,71.23
2016-05-15T03:07:39.408Z,71.14
2016-05-15T03:08:39.364Z,71.62
2016-05-15T03:09:39.352Z,71.43
2016-05-15T03:10:39.307Z,71.23
2016-05-15T03:11:39.294Z,71.81
2016-05-15T03:12:39.282Z,71.71
2016-05-15T03:13:39.222Z,71.9
2016-05-15T03:14:39.209Z,71.71
2016-05-15T03:15:39.196Z,71.43
2016-05-15T03:16:39.152Z,71.33
2016-05-15T03:17:39.123Z,71.62
2016-05-15T03:18:39.095Z,71.71
2016-05-15T03:19:39.081Z,71.81
2016-05-15T03:20:39.038Z,71.71
2016-05-15T03:21:39.009Z,71.71
2016-05-15T03:22:38.995Z,71.71
2016-05-15T03:23:38.968Z,71.71
2016-05-15T03:24:38.939Z,71.71
2016-05-15T03:25:38.909Z,71.62
2016-05-15T03:26:38.882Z,71.71
2016-05-15T03:27:38.853Z,71.81
2016-05-15T03:28:38.825Z,71.71
2016-05-15T03:29:38.811Z,71.81
2016-05-15T03:30:38.767Z,71.81
2016-05-15T03:31:38.755Z,71.81
2016-05-15T03:32:38.725Z,71.81
2016-05-15T03:33:38.697Z,71.9
2016-05-15T03:34:38.669Z,71.81
2016-05-15T03:35:38.656Z,71.81
2016-05-15T03:36:38.627Z,71.62
2016-05-15T03:37:38.599Z,71.62
2016-05-15T03:38:38.555Z,71.81
2016-05-15T03:39:38.526Z,71.81
2016-05-15T03:40:38.513Z,71.81
2016-05-15T03:41:38.485Z,72.19
2016-05-15T03:42:38.456Z,71.62
2016-05-15T03:43:38.427Z,71.62
2016-05-15T03:44:38.398Z,71.71
2016-05-15T03:45:38.371Z,71.71
2016-05-15T03:46:38.341Z,71.43
2016-05-15T03:47:38.328Z,71.52
2016-05-15T03:48:38.301Z,71.33
2016-05-15T03:49:38.272Z,71.43
2016-05-15T03:50:38.243Z,71.14
2016-05-15T03:51:38.229Z,71.43
2016-05-15T03:52:38.187Z,71.33
2016-05-15T03:53:38.157Z,71.43
2016-05-15T03:54:38.128Z,71.52
2016-05-15T03:55:38.101Z,71.43
2016-05-15T03:56:38.087Z,71.62
2016-05-15T03:57:38.059Z,71.62
2016-05-15T03:58:38.030Z,71.43
2016-05-15T03:59:38.001Z,71.23
2016-05-15T04:00:37.973Z,71.23
2016-05-15T04:01:37.944Z,71.14
2016-05-15T04:02:37.916Z,71.23
2016-05-15T04:03:37.903Z,71.14
2016-05-15T04:04:37.875Z,71.23
2016-05-15T04:05:37.846Z,70.86
2016-05-15T04:06:37.817Z,70.76
2016-05-15T04:07:37.789Z,70.76
2016-05-15T04:08:37.775Z,70.76
2016-05-15T04:09:37.732Z,70.38
2016-05-15T04:10:37.719Z,70.79
2016-05-15T04:11:37.691Z,70.61
2016-05-15T04:12:37.661Z,70.79
2016-05-15T04:13:37.632Z,70.7
2016-05-15T04:14:37.605Z,70.7
2016-05-15T04:15:37.576Z,70.89
2016-05-15T04:16:37.546Z,70.51
2016-05-15T04:17:37.535Z,70.7
2016-05-15T04:18:37.506Z,70.79
2016-05-15T04:19:37.727Z,70.7
2016-05-15T04:20:37.449Z,70.89
2016-05-15T04:21:37.421Z,70.89
2016-05-15T04:22:37.392Z,70.89
2016-05-15T04:23:37.378Z,70.89
2016-05-15T04:24:37.366Z,70.7
2016-05-15T04:25:37.321Z,70.13
2016-05-15T04:26:37.293Z,70.61
2016-05-15T04:27:37.264Z,70.51
2016-05-15T04:28:37.236Z,70.32
2016-05-15T04:29:37.223Z,70.32
2016-05-15T04:30:37.194Z,70.51
2016-05-15T04:31:37.166Z,70.32
2016-05-15T04:32:37.137Z,70.32
2016-05-15T04:33:37.109Z,70.13
2016-05-15T04:34:37.080Z,70.32
2016-05-15T04:35:37.067Z,70.23
2016-05-15T04:36:37.039Z,70.42
2016-05-15T04:37:37.010Z,70.23
2016-05-15T04:38:36.981Z,69.56
2016-05-15T04:39:36.953Z,69.85
2016-05-15T04:40:36.940Z,70.04
2016-05-15T04:41:36.911Z,69.66
2016-05-15T04:42:36.883Z,69.46
2016-05-15T04:43:36.854Z,69.37
2016-05-15T04:44:36.826Z,69.37
2016-05-15T04:45:36.796Z,69.56
2016-05-15T04:46:36.785Z,69.37
2016-05-15T04:47:36.755Z,69.37
2016-05-15T04:48:36.727Z,69.37
2016-05-15T04:49:36.699Z,69.46
2016-05-15T04:50:36.670Z,69.66
2016-05-15T04:51:36.641Z,69.75
2016-05-15T04:52:36.629Z,68.8
2016-05-15T04:53:36.600Z,69.09
2016-05-15T04:54:36.571Z,69.18
2016-05-15T04:55:36.543Z,68.9
2016-05-15T04:56:36.515Z,68.9
2016-05-15T04:57:36.501Z,68.71
2016-05-15T04:58:36.473Z,68.9
2016-05-15T04:59:36.444Z,68.13
2016-05-15T05:00:36.415Z,68.04
2016-05-15T05:01:36.387Z,68.23
2016-05-15T05:02:36.374Z,68.61
2016-05-15T05:03:36.346Z,68.52
2016-05-15T05:04:36.317Z,68.33
2016-05-15T05:05:36.288Z,68.04
2016-05-15T05:06:36.276Z,68.52
2016-05-15T05:07:36.247Z,67.85
2016-05-15T05:08:36.218Z,67.76
2016-05-15T05:09:36.190Z,68.23
2016-05-15T05:10:36.161Z,68.13
2016-05-15T05:11:36.149Z,67.85
2016-05-15T05:12:36.119Z,67.76
2016-05-15T05:13:36.091Z,67.76
2016-05-15T05:14:36.063Z,67.57
2016-05-15T05:15:36.034Z,67.66
2016-05-15T05:16:36.005Z,66.9
2016-05-15T05:17:35.993Z,67.09
2016-05-15T05:18:35.964Z,67.03
2016-05-15T05:19:35.951Z,66.84
2016-05-15T05:20:35.907Z,66.55
2016-05-15T05:21:35.894Z,66.74
2016-05-15T05:22:35.865Z,66.46
2016-05-15T05:23:35.837Z,66.17
2016-05-15T05:24:35.808Z,66.27
2016-05-15T05:25:35.796Z,66.17
2016-05-15T05:26:35.767Z,66.17
2016-05-15T05:27:35.737Z,65.7
2016-05-15T05:28:35.726Z,65.32
2016-05-15T05:29:35.697Z,65.6
2016-05-15T05:30:35.683Z,65.32
2016-05-15T05:31:35.639Z,65.22
2016-05-15T05:32:35.627Z,65.51
2016-05-15T05:33:35.598Z,64.84
2016-05-15T05:34:35.569Z,65.22
2016-05-15T05:35:35.557Z,65.41
2016-05-15T05:36:35.512Z,65.32
2016-05-15T05:37:35.499Z,65.41
2016-05-15T05:38:35.471Z,65.6
2016-05-15T05:39:35.442Z,65.51
2016-05-15T05:40:35.414Z,65.51
2016-05-15T05:41:35.400Z,65.32
2016-05-15T05:42:35.372Z,65.32
2016-05-15T05:43:35.344Z,65.51
2016-05-15T05:44:35.315Z,65.8
2016-05-15T05:45:35.302Z,66.08
2016-05-15T05:46:35.274Z,66.08
2016-05-15T05:47:35.246Z,66.84
2016-05-15T05:48:35.216Z,66.84
2016-05-15T05:49:35.204Z,66.94
2016-05-15T05:50:35.175Z,67.69
2016-05-15T05:51:35.146Z,68.17
2016-05-15T05:52:35.118Z,68.17
2016-05-15T05:53:35.090Z,68.65
2016-05-15T05:54:35.076Z,69.12
2016-05-15T05:55:35.048Z,69.41
2016-05-15T05:56:35.020Z,69.79
2016-05-15T05:57:34.990Z,70.45
2016-05-15T05:58:34.962Z,70.51
2016-05-15T05:59:34.948Z,71.02
2016-05-15T06:00:34.921Z,70.79
2016-05-15T06:01:34.892Z,71.27
2016-05-15T06:02:34.864Z,71.08
2016-05-15T06:03:34.835Z,71.66
2016-05-15T06:04:34.822Z,72.03
2016-05-15T06:05:34.794Z,71.94
2016-05-15T06:06:34.765Z,71.46
2016-05-15T06:07:34.736Z,72.13
2016-05-15T06:08:34.723Z,72.6
2016-05-15T06:09:34.694Z,72.99
2016-05-15T06:10:34.667Z,72.41
2016-05-15T06:11:34.638Z,72.99
2016-05-15T06:12:34.609Z,73.36
2016-05-15T06:13:34.580Z,73.84
2016-05-15T06:14:34.568Z,73.84
2016-05-15T06:15:34.539Z,73.93
2016-05-15T06:16:34.510Z,74.22
2016-05-15T06:17:34.483Z,74.69
2016-05-15T06:18:34.454Z,74.79
2016-05-15T06:19:34.549Z,74.69
2016-05-15T06:20:34.413Z,74.98
2016-05-15T06:21:34.383Z,75.45
2016-05-15T06:22:34.354Z,75.45
2016-05-15T06:23:34.326Z,75.45
2016-05-15T06:24:34.298Z,75.93
2016-05-15T06:25:34.285Z,76.31
2016-05-15T06:26:34.256Z,76.18
2016-05-15T06:27:34.228Z,76.46
2016-05-15T06:28:34.199Z,76.84
2016-05-15T06:29:34.170Z,76.93
2016-05-15T06:30:34.157Z,76.56
2016-05-15T06:31:34.129Z,77.45
2016-05-15T06:32:34.101Z,77.45
2016-05-15T06:33:34.072Z,77.26
2016-05-15T06:34:34.043Z,77.45
2016-05-15T06:35:34.015Z,77.26
2016-05-15T06:36:34.002Z,77.45
2016-05-15T06:37:33.973Z,77.55
2016-05-15T06:38:33.944Z,77.45
2016-05-15T06:39:33.917Z,77.07
2016-05-15T06:40:33.888Z,77.45
2016-05-15T06:41:33.858Z,77.26
2016-05-15T06:42:33.847Z,77.36
2016-05-15T06:43:33.817Z,77.26
2016-05-15T06:44:33.789Z,77.36
2016-05-15T06:45:33.760Z,77.36
2016-05-15T06:46:33.733Z,78.21
2016-05-15T06:47:33.719Z,77.83
2016-05-15T06:48:33.690Z,78.11
2016-05-15T06:49:33.663Z,78.11
2016-05-15T06:50:33.633Z,77.73
2016-05-15T06:51:33.604Z,77.64
2016-05-15T06:52:33.591Z,77.83
2016-05-15T06:53:33.563Z,78.02
2016-05-15T06:54:33.535Z,77.73
2016-05-15T06:55:33.506Z,77.73
2016-05-15T06:56:33.477Z,77.92
2016-05-15T06:57:33.465Z,77.36
2016-05-15T06:58:33.436Z,77.36
2016-05-15T06:59:33.407Z,76.78
2016-05-15T07:00:33.379Z,76.97
2016-05-15T07:01:33.366Z,76.97
2016-05-15T07:02:33.337Z,77.07
2016-05-15T07:03:33.309Z,76.82
2016-05-15T07:04:33.281Z,76.35
2016-05-15T07:05:33.251Z,76.06
2016-05-15T07:06:33.238Z,76.35
2016-05-15T07:07:33.211Z,76.35
2016-05-15T07:08:33.181Z,76.35
2016-05-15T07:09:33.169Z,76.54
2016-05-15T07:10:33.139Z,76.16
2016-05-15T07:11:33.128Z,75.68
2016-05-15T07:12:33.083Z,74.54
2016-05-15T07:13:33.069Z,74.35
2016-05-15T07:14:33.042Z,74.44
2016-05-15T07:15:33.028Z,74.58
2016-05-15T07:16:33.000Z,74.48
2016-05-15T07:17:32.972Z,74.48
2016-05-15T07:18:32.943Z,73.91
2016-05-15T07:19:32.930Z,73.91
2016-05-15T07:20:32.901Z,74.2
2016-05-15T07:21:32.873Z,73.72
2016-05-15T07:22:32.860Z,73.38
2016-05-15T07:23:32.832Z,73.19
2016-05-15T07:24:32.818Z,72.71
2016-05-15T07:25:32.790Z,72.62
2016-05-15T07:26:32.762Z,71.91
2016-05-15T07:27:32.748Z,71.95
2016-05-15T07:28:32.720Z,71.95
2016-05-15T07:29:32.707Z,71.76
2016-05-15T07:30:32.676Z,72.05
2016-05-15T07:31:32.648Z,72.81
2016-05-15T07:32:32.634Z,71.95
2016-05-15T07:33:32.606Z,72.33
2016-05-15T07:34:32.593Z,72.14
2016-05-15T07:35:32.564Z,71.38
2016-05-15T07:36:32.535Z,71.28
2016-05-15T07:37:32.523Z,70.62
2016-05-15T07:38:32.494Z,69.85
2016-05-15T07:39:32.501Z,70.43
2016-05-15T07:40:32.516Z,70.24
2016-05-15T07:41:32.532Z,69.85
2016-05-15T07:42:32.561Z,70.14
2016-05-15T07:43:32.576Z,70.33
2016-05-15T07:44:32.594Z,70.43
2016-05-15T07:45:32.581Z,69.95
2016-05-15T07:46:32.584Z,70.14
2016-05-15T07:47:32.571Z,69.85
2016-05-15T07:48:32.558Z,69.95
2016-05-15T07:49:32.556Z,69.42
2016-05-15T07:50:32.533Z,69.48
2016-05-15T07:51:32.525Z,69.99
2016-05-15T07:52:32.502Z,69.99
2016-05-15T07:53:32.480Z,70.18
2016-05-15T07:54:32.470Z,69.79
2016-05-15T07:55:32.443Z,69.6
2016-05-15T07:56:32.432Z,69.7
2016-05-15T07:57:32.405Z,69.04
2016-05-15T07:58:32.379Z,68.94
2016-05-15T07:59:32.367Z,67.89
2016-05-15T08:00:32.355Z,67.41
2016-05-15T08:01:32.327Z,67.22
2016-05-15T08:02:32.299Z,67.22
2016-05-15T08:03:32.272Z,67.13
2016-05-15T08:04:32.259Z,67.7
2016-05-15T08:05:32.246Z,68.08
2016-05-15T08:06:32.218Z,67.32
2016-05-15T08:07:32.222Z,66.02
2016-05-15T08:08:32.194Z,65.51
2016-05-15T08:09:32.149Z,65.03
2016-05-15T08:10:32.137Z,65.13
2016-05-15T08:11:32.108Z,65.8
2016-05-15T08:12:32.095Z,66.08
2016-05-15T08:13:32.066Z,66.5
2016-05-15T08:14:32.054Z,66.56
2016-05-15T08:15:32.025Z,66.5
2016-05-15T08:16:31.996Z,66.11
2016-05-15T08:17:31.984Z,65.32
2016-05-15T08:18:31.955Z,65.42
2016-05-15T08:19:31.942Z,65.7
2016-05-15T08:20:31.913Z,65.42
2016-05-15T08:21:31.885Z,65.13
2016-05-15T08:22:31.873Z,65.51
2016-05-15T08:23:31.859Z,65.42
2016-05-15T08:24:31.831Z,65.89
2016-05-15T08:25:31.802Z,66.75
2016-05-15T08:26:31.789Z,67.22
2016-05-15T08:27:31.761Z,67.51
2016-05-15T08:28:31.731Z,68.24
2016-05-15T08:29:31.720Z,68.37
2016-05-15T08:30:31.690Z,69.04
2016-05-15T08:31:31.677Z,69.57
2016-05-15T08:32:31.649Z,69.99
2016-05-15T08:33:31.620Z,69.95
2016-05-15T08:34:31.608Z,70.14
2016-05-15T08:35:31.578Z,70.47
2016-05-15T08:36:31.551Z,70.33
2016-05-15T08:37:31.538Z,70.81
2016-05-15T08:38:31.508Z,70.56
2016-05-15T08:39:31.481Z,70.24
2016-05-15T08:40:31.467Z,70.43
2016-05-15T08:41:31.438Z,70.9
2016-05-15T08:42:31.426Z,70.9
2016-05-15T08:43:31.397Z,71
2016-05-15T08:44:31.369Z,70.81
2016-05-15T08:45:31.355Z,69.67
2016-05-15T08:46:31.327Z,69.67
2016-05-15T08:47:31.315Z,68.52
2016-05-15T08:48:31.285Z,68.49
2016-05-15T08:49:31.257Z,69.06
2016-05-15T08:50:31.229Z,70.45
2016-05-15T08:51:31.216Z,71.22
2016-05-15T08:52:31.187Z,72.83
2016-05-15T08:53:31.159Z,73.78
2016-05-15T08:54:31.145Z,74.41
2016-05-15T08:55:31.117Z,75.36
2016-05-15T08:56:31.089Z,75.59
2016-05-15T08:57:31.060Z,76.12
2016-05-15T08:58:31.047Z,76.63
2016-05-15T08:59:31.018Z,77.01
2016-05-15T09:00:30.990Z,77.49
2016-05-15T09:01:30.977Z,77.58
2016-05-15T09:02:30.948Z,77.39
2016-05-15T09:03:30.920Z,78.16
2016-05-15T09:04:30.906Z,77.68
2016-05-15T09:05:30.879Z,78.16
2016-05-15T09:06:30.850Z,77.87
2016-05-15T09:07:30.821Z,78.25
2016-05-15T09:08:30.808Z,78.91
2016-05-15T09:09:30.779Z,78.72
2016-05-15T09:10:30.766Z,78.72
2016-05-15T09:11:30.739Z,79.05
2016-05-15T09:12:30.710Z,78.86
2016-05-15T09:13:30.680Z,78.86
2016-05-15T09:14:30.669Z,78.96
2016-05-15T09:15:30.640Z,78.96
2016-05-15T09:16:30.610Z,78.86
2016-05-15T09:17:30.598Z,78.77
2016-05-15T09:18:30.570Z,79.33
2016-05-15T09:19:30.541Z,79.24
2016-05-15T09:20:30.528Z,78.86
2016-05-15T09:21:30.499Z,78.86
2016-05-15T09:22:30.486Z,78.77
2016-05-15T09:23:30.458Z,79.19
2016-05-15T09:24:30.429Z,78.99
2016-05-15T09:25:30.417Z,78.8
2016-05-15T09:26:30.388Z,78.71
2016-05-15T09:27:30.375Z,78.71
2016-05-15T09:28:30.346Z,78.9
2016-05-15T09:29:30.318Z,78.94
2016-05-15T09:30:30.305Z,79.03
2016-05-15T09:31:30.276Z,78.94
2016-05-15T09:32:30.264Z,78.03
2016-05-15T09:33:30.234Z,78.03
2016-05-15T09:34:30.378Z,78.25
2016-05-15T09:35:30.209Z,77.4
2016-05-15T09:36:30.180Z,77.25
2016-05-15T09:37:30.167Z,76.62
2016-05-15T09:38:30.155Z,76.14
2016-05-15T09:39:30.126Z,76.04
2016-05-15T09:40:30.113Z,76.04
2016-05-15T09:41:30.100Z,74.9
2016-05-15T09:42:30.088Z,73.08
2016-05-15T09:43:30.074Z,70.32
2016-05-15T09:44:30.046Z,68.51
2016-05-15T09:45:30.032Z,67.27
2016-05-15T09:46:30.020Z,68.12
2016-05-15T09:47:30.007Z,68.7
2016-05-15T09:48:29.979Z,68.98
2016-05-15T09:49:29.965Z,68.79
2016-05-15T09:50:29.952Z,69.27
2016-05-15T09:51:29.940Z,68.03
2016-05-15T09:52:29.911Z,68.03
2016-05-15T09:53:29.898Z,67.36
2016-05-15T09:54:29.885Z,68.18
2016-05-15T09:55:29.856Z,66.5
2016-05-15T09:56:29.843Z,65.7
2016-05-15T09:57:29.831Z,65.13
2016-05-15T09:58:29.801Z,65.7
2016-05-15T09:59:29.790Z,65.04
2016-05-15T10:00:29.761Z,63.8
2016-05-15T10:01:29.748Z,64.62
2016-05-15T10:02:29.719Z,65.67
2016-05-15T10:03:29.706Z,64.81
2016-05-15T10:04:29.678Z,65.67
2016-05-15T10:05:29.664Z,66.78
2016-05-15T10:06:29.636Z,69.13
2016-05-15T10:07:29.623Z,71.09
2016-05-15T10:08:29.595Z,72.9
2016-05-15T10:09:29.581Z,74.96
2016-05-15T10:10:29.552Z,76.2
2016-05-15T10:11:29.540Z,77.43
2016-05-15T10:12:29.512Z,78.67
2016-05-15T10:13:29.483Z,79.81
2016-05-15T10:14:29.469Z,80.1
2016-05-15T10:15:29.442Z,80.47
2016-05-15T10:16:29.413Z,80.19
2016-05-15T10:17:29.400Z,80.95
2016-05-15T10:18:29.371Z,81.2
2016-05-15T10:19:29.344Z,81.01
2016-05-15T10:20:29.330Z,82.28
2016-05-15T10:21:29.302Z,82.67
2016-05-15T10:22:29.288Z,82.57
2016-05-15T10:23:29.275Z,83.04
2016-05-15T10:24:29.232Z,83.04
2016-05-15T10:25:29.218Z,83.23
2016-05-15T10:26:29.190Z,83.62
2016-05-15T10:27:29.176Z,83.62
2016-05-15T10:28:29.164Z,83.62
2016-05-15T10:29:29.120Z,83.9
2016-05-15T10:30:29.092Z,83.71
2016-05-15T10:31:29.125Z,83.71
2016-05-15T10:32:29.050Z,84.05
2016-05-15T10:33:29.021Z,84.66
2016-05-15T10:34:28.993Z,84.28
2016-05-15T10:35:28.995Z,84.38
2016-05-15T10:36:28.950Z,84.85
2016-05-15T10:37:28.939Z,85.24
2016-05-15T10:38:28.910Z,84.85
2016-05-15T10:39:28.881Z,84.76
2016-05-15T10:40:28.868Z,84.85
2016-05-15T10:41:28.840Z,84.95
2016-05-15T10:42:28.827Z,85.08
2016-05-15T10:43:28.798Z,84.7
2016-05-15T10:44:28.769Z,84.52
2016-05-15T10:45:28.757Z,83.94
2016-05-15T10:46:28.728Z,84.23
2016-05-15T10:47:28.716Z,83.75
2016-05-15T10:48:28.686Z,83.8
2016-05-15T10:49:28.674Z,83.41
2016-05-15T10:50:28.645Z,82.6
2016-05-15T10:51:28.633Z,82.03
2016-05-15T10:52:28.604Z,81.68
2016-05-15T10:53:28.590Z,80.83
2016-05-15T10:54:28.577Z,80.58
2016-05-15T10:55:28.548Z,79.53
2016-05-15T10:56:28.537Z,78.23
2016-05-15T10:57:28.523Z,78.52
2016-05-15T10:58:28.510Z,77.67
2016-05-15T10:59:28.497Z,77.8
2016-05-15T11:00:28.485Z,75.98
2016-05-15T11:01:28.471Z,75.83
2016-05-15T11:02:28.443Z,74.4
2016-05-15T11:03:28.445Z,74.3
2016-05-15T11:04:28.418Z,74.88
2016-05-15T11:05:28.403Z,74.98
2016-05-15T11:06:28.392Z,74.49
2016-05-15T11:07:28.378Z,74.4
2016-05-15T11:08:28.365Z,75.16
2016-05-15T11:09:28.352Z,75.54
2016-05-15T11:10:28.340Z,75.64
2016-05-15T11:11:28.327Z,74.98
2016-05-15T11:12:28.314Z,73
2016-05-15T11:13:28.300Z,71.34
2016-05-15T11:14:28.288Z,72.01
2016-05-15T11:15:28.274Z,73.54
2016-05-15T11:16:28.247Z,73.16
2016-05-15T11:17:28.233Z,71.15
2016-05-15T11:18:28.221Z,71.21
2016-05-15T11:19:28.207Z,71.31
2016-05-15T11:20:28.179Z,70.73
2016-05-15T11:21:28.166Z,71.27
2016-05-15T11:22:28.152Z,69.27
2016-05-15T11:23:28.124Z,68.88
2016-05-15T11:24:28.127Z,67.99
2016-05-15T11:25:28.098Z,70.28
2016-05-15T11:26:28.085Z,71.96
2016-05-15T11:27:28.057Z,71.2
2016-05-15T11:28:28.043Z,71.55
2016-05-15T11:29:28.015Z,71.17
2016-05-15T11:30:28.003Z,71.93
2016-05-15T11:31:27.974Z,72.78
2016-05-15T11:32:27.961Z,73.51
2016-05-15T11:33:27.932Z,74.08
2016-05-15T11:34:27.920Z,74.94
2016-05-15T11:35:27.892Z,75.79
2016-05-15T11:36:27.862Z,75.79
2016-05-15T11:37:27.850Z,76.46
2016-05-15T11:38:27.820Z,76.84
2016-05-15T11:39:27.808Z,77.22
2016-05-15T11:40:27.780Z,78.17
2016-05-15T11:41:27.767Z,78.37
2016-05-15T11:42:27.847Z,77.61
2016-05-15T11:43:27.725Z,77.89
2016-05-15T11:44:27.696Z,77.56
2016-05-15T11:45:27.669Z,79.03
2016-05-15T11:46:27.655Z,76.46
2016-05-15T11:47:27.627Z,76.18
2016-05-15T11:48:27.629Z,76.9
2016-05-15T11:49:27.585Z,77.98
2016-05-15T11:50:27.571Z,76.84
2016-05-15T11:51:27.544Z,78.46
2016-05-15T11:52:27.530Z,79.51
2016-05-15T11:53:27.502Z,79.7
2016-05-15T11:54:27.488Z,78.94
2016-05-15T11:55:27.460Z,76.84
2016-05-15T11:56:27.540Z,78.37
2016-05-15T11:57:27.419Z,77.89
2016-05-15T11:58:27.407Z,78.37
2016-05-15T11:59:27.377Z,78.65
2016-05-15T12:00:27.364Z,78.17
2016-05-15T12:01:27.336Z,77.89
2016-05-15T12:02:27.307Z,79.03
2016-05-15T12:03:27.295Z,79.8
2016-05-15T12:04:27.266Z,79.89
2016-05-15T12:05:27.253Z,78.65
2016-05-15T12:06:27.225Z,77.32
2016-05-15T12:07:27.211Z,78.37
2016-05-15T12:08:27.183Z,78.85
2016-05-15T12:09:27.170Z,78.46
2016-05-15T12:10:27.142Z,79.32
2016-05-15T12:11:27.113Z,79.83
2016-05-15T12:12:27.100Z,80.02
2016-05-15T12:13:27.072Z,77.07
2016-05-15T12:14:27.059Z,76.69
2016-05-15T12:15:27.030Z,76.21
2016-05-15T12:16:27.017Z,77.26
2016-05-15T12:17:26.988Z,76.21
2016-05-15T12:18:26.975Z,73.74
2016-05-15T12:19:26.946Z,73.93
2016-05-15T12:20:26.918Z,72.02
2016-05-15T12:21:26.922Z,73.83
2016-05-15T12:22:26.877Z,74.18
2016-05-15T12:23:26.864Z,75.45
2016-05-15T12:24:26.851Z,74.79
2016-05-15T12:25:26.822Z,76.5
2016-05-15T12:36:07.117Z,79.78
2016-05-15T12:37:07.089Z,79.21
2016-05-15T12:38:07.076Z,77.01
2016-05-15T12:39:07.064Z,77.59
2016-05-15T12:40:07.035Z,78.3
2016-05-15T12:41:07.037Z,76.57
2016-05-15T12:42:07.009Z,76.2
2016-05-15T12:43:06.980Z,71.08
2016-05-15T12:44:06.967Z,72.13
2016-05-15T12:45:06.954Z,73.08
2016-05-15T12:46:06.926Z,74.84
2016-05-15T12:47:06.913Z,75.22
2016-05-15T12:48:06.900Z,76.03
2016-05-15T12:49:06.887Z,75.49
2016-05-15T12:50:06.874Z,75.39
2016-05-15T12:51:06.861Z,75.39
2016-05-15T12:52:06.848Z,74.95
2016-05-15T12:53:06.835Z,74.09
2016-05-15T12:54:06.822Z,71.93
2016-05-15T12:55:06.810Z,72.41
2016-05-15T12:56:06.796Z,71.13
2016-05-15T12:57:06.783Z,70.84
2016-05-15T12:58:06.771Z,71.42
2016-05-15T12:59:06.758Z,70.46
2016-05-15T13:00:06.745Z,62.33
2016-05-15T13:01:06.732Z,63
2016-05-15T13:02:06.718Z,62.24
2016-05-15T13:03:06.690Z,65.84
2016-05-15T13:04:06.692Z,68.51
2016-05-15T13:05:06.665Z,70.61
2016-05-15T13:06:06.651Z,68.13